sensor_id;sensor_type;location;lat;lon;timestamp;temperature;humidity
38237;DHT22;50101;49.438;11.098;2023-03-23T00:02:28;19.40;53.80
38237;DHT22;50101;49.438;11.098;2023-03-23T00:04:55;19.40;53.80
38237;DHT22;50101;49.438;11.098;2023-03-23T00:07:22;19.40;53.80
38237;DHT22;50101;49.438;11.098;2023-03-23T00:09:53;19.40;53.80
38237;DHT22;50101;49.438;11.098;2023-03-23T00:12:25;19.40;53.80
38237;DHT22;50101;49.438;11.098;2023-03-23T00:14:57;19.30;53.70
38237;DHT22;50101;49.438;11.098;2023-03-23T00:17:23;19.30;53.70
38237;DHT22;50101;49.438;11.098;2023-03-23T00:19:49;19.40;53.80
38237;DHT22;50101;49.438;11.098;2023-03-23T00:22:16;19.40;53.80
38237;DHT22;50101;49.438;11.098;2023-03-23T00:24:42;19.40;53.80
38237;DHT22;50101;49.438;11.098;2023-03-23T00:27:10;19.30;53.70
38237;DHT22;50101;49.438;11.098;2023-03-23T00:29:38;19.30;53.70
38237;DHT22;50101;49.438;11.098;2023-03-23T00:32:05;19.30;53.70
38237;DHT22;50101;49.438;11.098;2023-03-23T00:34:31;19.40;53.70
38237;DHT22;50101;49.438;11.098;2023-03-23T00:36:58;19.40;53.80
38237;DHT22;50101;49.438;11.098;2023-03-23T00:39:25;19.30;53.70
38237;DHT22;50101;49.438;11.098;2023-03-23T00:41:51;19.30;53.70
38237;DHT22;50101;49.438;11.098;2023-03-23T00:44:17;19.30;53.70
38237;DHT22;50101;49.438;11.098;2023-03-23T00:46:46;19.30;53.70
38237;DHT22;50101;49.438;11.098;2023-03-23T00:49:16;19.30;53.70
38237;DHT22;50101;49.438;11.098;2023-03-23T00:51:43;19.30;53.70
38237;DHT22;50101;49.438;11.098;2023-03-23T00:54:10;19.30;53.70
38237;DHT22;50101;49.438;11.098;2023-03-23T00:56:36;19.30;53.60
38237;DHT22;50101;49.438;11.098;2023-03-23T00:59:02;19.30;53.70
38237;DHT22;50101;49.438;11.098;2023-03-23T01:01:29;19.30;53.70
38237;DHT22;50101;49.438;11.098;2023-03-23T01:03:55;19.30;53.60
38237;DHT22;50101;49.438;11.098;2023-03-23T01:06:27;19.30;53.70
38237;DHT22;50101;49.438;11.098;2023-03-23T01:08:53;19.30;53.60
38237;DHT22;50101;49.438;11.098;2023-03-23T01:11:19;19.30;53.60
38237;DHT22;50101;49.438;11.098;2023-03-23T01:13:45;19.30;53.60
38237;DHT22;50101;49.438;11.098;2023-03-23T01:16:12;19.30;53.60
38237;DHT22;50101;49.438;11.098;2023-03-23T01:18:39;19.30;53.10
38237;DHT22;50101;49.438;11.098;2023-03-23T01:21:10;19.30;54.20
38237;DHT22;50101;49.438;11.098;2023-03-23T01:23:37;19.30;53.60
38237;DHT22;50101;49.438;11.098;2023-03-23T01:26:07;19.30;53.60
38237;DHT22;50101;49.438;11.098;2023-03-23T01:28:34;19.30;53.60
38237;DHT22;50101;49.438;11.098;2023-03-23T01:31:02;19.30;53.60
38237;DHT22;50101;49.438;11.098;2023-03-23T01:33:28;19.30;53.60
38237;DHT22;50101;49.438;11.098;2023-03-23T01:35:54;19.30;53.60
38237;DHT22;50101;49.438;11.098;2023-03-23T01:38:19;19.30;53.60
38237;DHT22;50101;49.438;11.098;2023-03-23T01:40:46;19.30;53.00
38237;DHT22;50101;49.438;11.098;2023-03-23T01:43:14;19.20;53.50
38237;DHT22;50101;49.438;11.098;2023-03-23T01:45:40;19.30;53.60
38237;DHT22;50101;49.438;11.098;2023-03-23T01:48:07;19.30;53.60
38237;DHT22;50101;49.438;11.098;2023-03-23T01:50:40;19.30;53.50
38237;DHT22;50101;49.438;11.098;2023-03-23T01:53:08;19.30;53.50
38237;DHT22;50101;49.438;11.098;2023-03-23T01:55:37;19.30;53.60
38237;DHT22;50101;49.438;11.098;2023-03-23T01:58:04;19.30;53.50
38237;DHT22;50101;49.438;11.098;2023-03-23T02:00:31;19.30;53.50
38237;DHT22;50101;49.438;11.098;2023-03-23T02:02:57;19.30;53.50
38237;DHT22;50101;49.438;11.098;2023-03-23T02:05:31;19.30;53.50
38237;DHT22;50101;49.438;11.098;2023-03-23T02:07:59;19.30;53.50
38237;DHT22;50101;49.438;11.098;2023-03-23T02:10:29;19.30;53.50
38237;DHT22;50101;49.438;11.098;2023-03-23T02:12:57;19.30;53.50
38237;DHT22;50101;49.438;11.098;2023-03-23T02:15:25;19.30;53.60
38237;DHT22;50101;49.438;11.098;2023-03-23T02:18:03;19.30;53.00
38237;DHT22;50101;49.438;11.098;2023-03-23T02:23:52;19.30;53.50
38237;DHT22;50101;49.438;11.098;2023-03-23T02:34:17;19.20;53.40
38237;DHT22;50101;49.438;11.098;2023-03-23T02:36:58;19.20;53.40
38237;DHT22;50101;49.438;11.098;2023-03-23T02:39:30;19.30;53.50
38237;DHT22;50101;49.438;11.098;2023-03-23T02:44:32;19.20;53.40
38237;DHT22;50101;49.438;11.098;2023-03-23T02:47:00;19.20;53.40
38237;DHT22;50101;49.438;11.098;2023-03-23T02:49:29;19.20;53.40
38237;DHT22;50101;49.438;11.098;2023-03-23T02:51:59;19.20;53.40
38237;DHT22;50101;49.438;11.098;2023-03-23T02:54:27;19.20;53.40
38237;DHT22;50101;49.438;11.098;2023-03-23T02:56:54;19.20;53.40
38237;DHT22;50101;49.438;11.098;2023-03-23T02:59:21;19.20;53.40
38237;DHT22;50101;49.438;11.098;2023-03-23T03:01:57;19.20;53.40
38237;DHT22;50101;49.438;11.098;2023-03-23T03:04:26;19.20;53.40
38237;DHT22;50101;49.438;11.098;2023-03-23T03:09:57;19.20;53.40
38237;DHT22;50101;49.438;11.098;2023-03-23T03:18:03;19.20;52.90
38237;DHT22;50101;49.438;11.098;2023-03-23T03:20:31;19.20;53.30
38237;DHT22;50101;49.438;11.098;2023-03-23T03:22:59;19.20;53.40
38237;DHT22;50101;49.438;11.098;2023-03-23T03:25:26;19.20;53.30
38237;DHT22;50101;49.438;11.098;2023-03-23T03:27:53;19.20;53.40
38237;DHT22;50101;49.438;11.098;2023-03-23T03:30:22;19.20;52.90
38237;DHT22;50101;49.438;11.098;2023-03-23T03:32:51;19.20;53.40
38237;DHT22;50101;49.438;11.098;2023-03-23T03:35:21;19.20;53.40
38237;DHT22;50101;49.438;11.098;2023-03-23T03:37:47;19.20;53.40
38237;DHT22;50101;49.438;11.098;2023-03-23T03:40:15;19.20;53.40
38237;DHT22;50101;49.438;11.098;2023-03-23T03:42:42;19.20;53.40
38237;DHT22;50101;49.438;11.098;2023-03-23T03:45:10;19.20;53.40
38237;DHT22;50101;49.438;11.098;2023-03-23T03:47:37;19.20;53.40
38237;DHT22;50101;49.438;11.098;2023-03-23T03:50:03;19.20;53.30
38237;DHT22;50101;49.438;11.098;2023-03-23T03:52:29;19.20;53.40
38237;DHT22;50101;49.438;11.098;2023-03-23T03:54:55;19.20;53.40
38237;DHT22;50101;49.438;11.098;2023-03-23T03:57:22;19.20;53.40
38237;DHT22;50101;49.438;11.098;2023-03-23T03:59:48;19.20;53.40
38237;DHT22;50101;49.438;11.098;2023-03-23T04:02:13;19.20;53.30
38237;DHT22;50101;49.438;11.098;2023-03-23T04:04:42;19.20;53.30
38237;DHT22;50101;49.438;11.098;2023-03-23T04:07:08;19.20;53.40
38237;DHT22;50101;49.438;11.098;2023-03-23T04:09:37;19.20;52.80
38237;DHT22;50101;49.438;11.098;2023-03-23T04:12:03;19.20;53.30
38237;DHT22;50101;49.438;11.098;2023-03-23T04:14:29;19.20;53.30
38237;DHT22;50101;49.438;11.098;2023-03-23T04:16:55;19.20;53.30
38237;DHT22;50101;49.438;11.098;2023-03-23T04:19:23;19.20;53.40
38237;DHT22;50101;49.438;11.098;2023-03-23T04:21:48;19.20;53.30
38237;DHT22;50101;49.438;11.098;2023-03-23T04:24:15;19.20;53.40
38237;DHT22;50101;49.438;11.098;2023-03-23T04:26:41;19.20;53.30
38237;DHT22;50101;49.438;11.098;2023-03-23T04:29:08;19.20;53.30
38237;DHT22;50101;49.438;11.098;2023-03-23T04:31:34;19.20;53.30
38237;DHT22;50101;49.438;11.098;2023-03-23T04:34:01;19.20;53.30
38237;DHT22;50101;49.438;11.098;2023-03-23T04:36:27;19.20;53.30
38237;DHT22;50101;49.438;11.098;2023-03-23T04:38:56;19.20;53.30
38237;DHT22;50101;49.438;11.098;2023-03-23T04:41:22;19.20;53.40
38237;DHT22;50101;49.438;11.098;2023-03-23T04:43:50;19.20;53.40
38237;DHT22;50101;49.438;11.098;2023-03-23T04:46:18;19.20;53.30
38237;DHT22;50101;49.438;11.098;2023-03-23T04:48:45;19.20;53.40
38237;DHT22;50101;49.438;11.098;2023-03-23T04:51:11;19.20;53.40
38237;DHT22;50101;49.438;11.098;2023-03-23T04:53:39;19.20;53.40
38237;DHT22;50101;49.438;11.098;2023-03-23T04:56:07;19.20;53.40
38237;DHT22;50101;49.438;11.098;2023-03-23T04:58:34;19.20;53.40
38237;DHT22;50101;49.438;11.098;2023-03-23T05:01:00;19.20;53.30
38237;DHT22;50101;49.438;11.098;2023-03-23T05:03:26;19.20;53.30
38237;DHT22;50101;49.438;11.098;2023-03-23T05:05:54;19.20;53.30
38237;DHT22;50101;49.438;11.098;2023-03-23T05:08:21;19.20;53.30
38237;DHT22;50101;49.438;11.098;2023-03-23T05:10:58;19.20;53.30
38237;DHT22;50101;49.438;11.098;2023-03-23T05:13:24;19.20;53.20
38237;DHT22;50101;49.438;11.098;2023-03-23T05:15:50;19.20;53.20
38237;DHT22;50101;49.438;11.098;2023-03-23T05:18:16;19.20;53.20
38237;DHT22;50101;49.438;11.098;2023-03-23T05:20:42;19.20;53.20
38237;DHT22;50101;49.438;11.098;2023-03-23T05:23:09;19.20;53.20
38237;DHT22;50101;49.438;11.098;2023-03-23T05:25:36;19.20;53.20
38237;DHT22;50101;49.438;11.098;2023-03-23T05:28:06;19.20;53.20
38237;DHT22;50101;49.438;11.098;2023-03-23T05:30:32;19.20;53.20
38237;DHT22;50101;49.438;11.098;2023-03-23T05:32:57;19.20;53.20
38237;DHT22;50101;49.438;11.098;2023-03-23T05:35:23;19.20;53.20
38237;DHT22;50101;49.438;11.098;2023-03-23T05:37:48;19.20;53.20
38237;DHT22;50101;49.438;11.098;2023-03-23T05:40:15;19.20;53.30
38237;DHT22;50101;49.438;11.098;2023-03-23T05:42:41;19.20;53.30
38237;DHT22;50101;49.438;11.098;2023-03-23T05:45:08;19.20;53.40
38237;DHT22;50101;49.438;11.098;2023-03-23T05:47:36;19.20;53.40
38237;DHT22;50101;49.438;11.098;2023-03-23T05:50:03;19.20;52.90
38237;DHT22;50101;49.438;11.098;2023-03-23T05:52:28;19.20;53.40
38237;DHT22;50101;49.438;11.098;2023-03-23T05:54:54;19.30;53.50
38237;DHT22;50101;49.438;11.098;2023-03-23T05:57:20;19.30;53.50
38237;DHT22;50101;49.438;11.098;2023-03-23T05:59:47;19.30;53.50
38237;DHT22;50101;49.438;11.098;2023-03-23T06:02:13;19.20;53.60
38237;DHT22;50101;49.438;11.098;2023-03-23T06:04:40;19.20;53.60
38237;DHT22;50101;49.438;11.098;2023-03-23T06:07:07;19.20;53.60
38237;DHT22;50101;49.438;11.098;2023-03-23T06:09:33;19.20;53.60
38237;DHT22;50101;49.438;11.098;2023-03-23T06:11:58;19.20;53.70
38237;DHT22;50101;49.438;11.098;2023-03-23T06:14:24;19.20;53.70
38237;DHT22;50101;49.438;11.098;2023-03-23T06:16:50;19.20;53.70
38237;DHT22;50101;49.438;11.098;2023-03-23T06:19:16;19.20;53.70
38237;DHT22;50101;49.438;11.098;2023-03-23T06:21:42;19.20;53.70
38237;DHT22;50101;49.438;11.098;2023-03-23T06:24:08;19.20;53.70
38237;DHT22;50101;49.438;11.098;2023-03-23T06:26:38;19.30;53.80
38237;DHT22;50101;49.438;11.098;2023-03-23T06:29:05;19.30;53.80
38237;DHT22;50101;49.438;11.098;2023-03-23T06:31:42;19.30;53.80
38237;DHT22;50101;49.438;11.098;2023-03-23T06:34:09;19.30;53.80
38237;DHT22;50101;49.438;11.098;2023-03-23T06:36:36;19.30;53.90
38237;DHT22;50101;49.438;11.098;2023-03-23T06:39:02;19.30;53.40
38237;DHT22;50101;49.438;11.098;2023-03-23T06:41:33;19.20;53.80
38237;DHT22;50101;49.438;11.098;2023-03-23T06:43:59;19.30;53.90
38237;DHT22;50101;49.438;11.098;2023-03-23T06:46:26;19.30;53.90
38237;DHT22;50101;49.438;11.098;2023-03-23T06:48:52;19.30;54.00
38237;DHT22;50101;49.438;11.098;2023-03-23T06:51:18;19.30;54.00
38237;DHT22;50101;49.438;11.098;2023-03-23T06:53:44;19.30;54.00
38237;DHT22;50101;49.438;11.098;2023-03-23T06:56:10;19.30;54.10
38237;DHT22;50101;49.438;11.098;2023-03-23T06:58:37;19.30;54.10
38237;DHT22;50101;49.438;11.098;2023-03-23T07:01:03;19.30;54.20
38237;DHT22;50101;49.438;11.098;2023-03-23T07:03:30;19.30;54.30
38237;DHT22;50101;49.438;11.098;2023-03-23T07:05:57;19.30;54.30
38237;DHT22;50101;49.438;11.098;2023-03-23T07:08:22;19.30;54.40
38237;DHT22;50101;49.438;11.098;2023-03-23T07:10:51;19.30;54.30
38237;DHT22;50101;49.438;11.098;2023-03-23T07:13:18;19.30;54.40
38237;DHT22;50101;49.438;11.098;2023-03-23T07:15:44;19.40;54.50
38237;DHT22;50101;49.438;11.098;2023-03-23T07:18:10;19.40;54.50
38237;DHT22;50101;49.438;11.098;2023-03-23T07:20:36;19.40;54.40
38237;DHT22;50101;49.438;11.098;2023-03-23T07:23:03;19.40;54.40
38237;DHT22;50101;49.438;11.098;2023-03-23T07:25:31;19.40;54.50
38237;DHT22;50101;49.438;11.098;2023-03-23T07:27:59;19.40;53.90
38237;DHT22;50101;49.438;11.098;2023-03-23T07:30:25;19.40;54.50
38237;DHT22;50101;49.438;11.098;2023-03-23T07:32:52;19.30;54.30
38237;DHT22;50101;49.438;11.098;2023-03-23T07:35:18;19.30;54.40
38237;DHT22;50101;49.438;11.098;2023-03-23T07:37:44;19.40;54.40
38237;DHT22;50101;49.438;11.098;2023-03-23T07:40:11;19.30;54.40
38237;DHT22;50101;49.438;11.098;2023-03-23T07:42:44;19.40;54.50
38237;DHT22;50101;49.438;11.098;2023-03-23T07:45:12;19.40;54.50
38237;DHT22;50101;49.438;11.098;2023-03-23T07:47:39;19.40;54.50
38237;DHT22;50101;49.438;11.098;2023-03-23T07:50:06;19.30;54.40
38237;DHT22;50101;49.438;11.098;2023-03-23T07:52:33;19.40;54.50
38237;DHT22;50101;49.438;11.098;2023-03-23T07:54:59;19.40;54.50
38237;DHT22;50101;49.438;11.098;2023-03-23T07:57:28;19.40;54.60
38237;DHT22;50101;49.438;11.098;2023-03-23T07:59:54;19.40;54.50
38237;DHT22;50101;49.438;11.098;2023-03-23T08:02:20;19.40;54.50
38237;DHT22;50101;49.438;11.098;2023-03-23T08:04:46;19.40;54.60
38237;DHT22;50101;49.438;11.098;2023-03-23T08:07:13;19.40;54.50
38237;DHT22;50101;49.438;11.098;2023-03-23T08:09:42;19.40;54.50
38237;DHT22;50101;49.438;11.098;2023-03-23T08:12:07;19.30;54.40
38237;DHT22;50101;49.438;11.098;2023-03-23T08:14:33;19.40;54.50
38237;DHT22;50101;49.438;11.098;2023-03-23T08:16:59;19.40;54.50
38237;DHT22;50101;49.438;11.098;2023-03-23T08:19:25;19.40;54.50
38237;DHT22;50101;49.438;11.098;2023-03-23T08:21:52;19.40;54.50
38237;DHT22;50101;49.438;11.098;2023-03-23T08:24:17;19.40;54.50
38237;DHT22;50101;49.438;11.098;2023-03-23T08:26:44;19.40;54.50
38237;DHT22;50101;49.438;11.098;2023-03-23T08:29:10;19.40;54.50
38237;DHT22;50101;49.438;11.098;2023-03-23T08:31:38;19.40;54.50
38237;DHT22;50101;49.438;11.098;2023-03-23T08:34:04;19.40;54.50
38237;DHT22;50101;49.438;11.098;2023-03-23T08:36:32;19.40;54.50
38237;DHT22;50101;49.438;11.098;2023-03-23T08:38:58;19.40;54.50
38237;DHT22;50101;49.438;11.098;2023-03-23T08:41:24;19.40;54.50
38237;DHT22;50101;49.438;11.098;2023-03-23T08:43:50;19.40;54.50
38237;DHT22;50101;49.438;11.098;2023-03-23T08:46:18;19.40;54.50
38237;DHT22;50101;49.438;11.098;2023-03-23T08:48:45;19.40;54.60
38237;DHT22;50101;49.438;11.098;2023-03-23T08:51:12;19.40;54.50
38237;DHT22;50101;49.438;11.098;2023-03-23T08:53:38;19.30;54.40
38237;DHT22;50101;49.438;11.098;2023-03-23T08:56:09;19.40;55.10
38237;DHT22;50101;49.438;11.098;2023-03-23T08:58:36;19.40;54.60
38237;DHT22;50101;49.438;11.098;2023-03-23T09:01:04;19.40;54.60
38237;DHT22;50101;49.438;11.098;2023-03-23T09:03:32;19.40;54.60
38237;DHT22;50101;49.438;11.098;2023-03-23T09:06:02;19.40;54.70
38237;DHT22;50101;49.438;11.098;2023-03-23T09:08:28;19.40;54.40
38237;DHT22;50101;49.438;11.098;2023-03-23T09:10:58;19.40;54.90
38237;DHT22;50101;49.438;11.098;2023-03-23T09:13:24;19.40;54.90
38237;DHT22;50101;49.438;11.098;2023-03-23T09:15:50;19.40;54.90
38237;DHT22;50101;49.438;11.098;2023-03-23T09:18:16;19.40;54.90
38237;DHT22;50101;49.438;11.098;2023-03-23T09:20:42;19.40;55.10
38237;DHT22;50101;49.438;11.098;2023-03-23T09:23:09;19.40;55.10
38237;DHT22;50101;49.438;11.098;2023-03-23T09:25:35;19.40;55.10
38237;DHT22;50101;49.438;11.098;2023-03-23T09:28:02;19.40;55.20
38237;DHT22;50101;49.438;11.098;2023-03-23T09:30:30;19.40;55.30
38237;DHT22;50101;49.438;11.098;2023-03-23T09:32:57;19.50;55.30
38237;DHT22;50101;49.438;11.098;2023-03-23T09:35:26;19.50;55.40
38237;DHT22;50101;49.438;11.098;2023-03-23T09:37:53;19.50;55.40
38237;DHT22;50101;49.438;11.098;2023-03-23T09:40:22;19.50;55.50
38237;DHT22;50101;49.438;11.098;2023-03-23T09:42:58;19.50;55.50
38237;DHT22;50101;49.438;11.098;2023-03-23T09:51:06;19.40;55.50
38237;DHT22;50101;49.438;11.098;2023-03-23T09:53:39;19.40;55.60
38237;DHT22;50101;49.438;11.098;2023-03-23T09:56:12;19.40;55.60
38237;DHT22;50101;49.438;11.098;2023-03-23T09:59:12;19.40;55.50
38237;DHT22;50101;49.438;11.098;2023-03-23T10:01:49;19.40;55.50
38237;DHT22;50101;49.438;11.098;2023-03-23T10:06:58;19.50;55.50
38237;DHT22;50101;49.438;11.098;2023-03-23T10:09:26;19.50;55.50
38237;DHT22;50101;49.438;11.098;2023-03-23T10:17:42;19.50;55.60
38237;DHT22;50101;49.438;11.098;2023-03-23T10:23:02;19.40;55.50
38237;DHT22;50101;49.438;11.098;2023-03-23T10:25:35;19.40;55.50
38237;DHT22;50101;49.438;11.098;2023-03-23T10:28:18;19.40;55.50
38237;DHT22;50101;49.438;11.098;2023-03-23T10:30:57;19.40;55.50
38237;DHT22;50101;49.438;11.098;2023-03-23T10:33:40;19.40;55.60
38237;DHT22;50101;49.438;11.098;2023-03-23T10:36:30;19.40;55.50
38237;DHT22;50101;49.438;11.098;2023-03-23T10:41:29;19.50;55.50
38237;DHT22;50101;49.438;11.098;2023-03-23T10:43:55;19.40;55.40
38237;DHT22;50101;49.438;11.098;2023-03-23T10:46:56;19.40;55.50
38237;DHT22;50101;49.438;11.098;2023-03-23T10:49:26;19.40;55.50
38237;DHT22;50101;49.438;11.098;2023-03-23T10:54:27;19.40;55.40
38237;DHT22;50101;49.438;11.098;2023-03-23T10:56:57;19.40;55.40
38237;DHT22;50101;49.438;11.098;2023-03-23T10:59:29;19.40;54.90
38237;DHT22;50101;49.438;11.098;2023-03-23T11:01:57;19.40;55.40
38237;DHT22;50101;49.438;11.098;2023-03-23T11:04:25;19.40;55.40
38237;DHT22;50101;49.438;11.098;2023-03-23T11:07:00;19.40;55.40
38237;DHT22;50101;49.438;11.098;2023-03-23T11:09:39;19.40;55.50
38237;DHT22;50101;49.438;11.098;2023-03-23T11:12:17;19.40;55.40
38237;DHT22;50101;49.438;11.098;2023-03-23T11:14:42;19.40;55.50
38237;DHT22;50101;49.438;11.098;2023-03-23T11:17:24;19.40;55.40
38237;DHT22;50101;49.438;11.098;2023-03-23T11:19:50;19.40;55.50
38237;DHT22;50101;49.438;11.098;2023-03-23T11:22:25;19.40;55.40
38237;DHT22;50101;49.438;11.098;2023-03-23T11:24:56;19.40;55.40
38237;DHT22;50101;49.438;11.098;2023-03-23T11:27:43;19.40;55.40
38237;DHT22;50101;49.438;11.098;2023-03-23T11:32:45;19.40;55.50
38237;DHT22;50101;49.438;11.098;2023-03-23T11:35:23;19.40;55.50
38237;DHT22;50101;49.438;11.098;2023-03-23T11:37:58;19.40;55.50
38237;DHT22;50101;49.438;11.098;2023-03-23T11:40:27;19.40;55.60
38237;DHT22;50101;49.438;11.098;2023-03-23T11:45:32;19.40;55.60
38237;DHT22;50101;49.438;11.098;2023-03-23T11:48:17;19.40;55.60
38237;DHT22;50101;49.438;11.098;2023-03-23T11:51:10;19.40;55.70
38237;DHT22;50101;49.438;11.098;2023-03-23T11:53:58;19.40;55.70
38237;DHT22;50101;49.438;11.098;2023-03-23T11:58:57;19.40;55.30
38237;DHT22;50101;49.438;11.098;2023-03-23T12:07:18;19.40;55.80
38237;DHT22;50101;49.438;11.098;2023-03-23T12:09:54;19.40;55.80
38237;DHT22;50101;49.438;11.098;2023-03-23T12:15:38;19.40;55.80
38237;DHT22;50101;49.438;11.098;2023-03-23T12:18:33;19.40;55.70
38237;DHT22;50101;49.438;11.098;2023-03-23T12:21:11;19.40;55.80
38237;DHT22;50101;49.438;11.098;2023-03-23T12:29:03;19.40;55.70
38237;DHT22;50101;49.438;11.098;2023-03-23T12:34:48;19.40;55.70
38237;DHT22;50101;49.438;11.098;2023-03-23T12:40:28;19.40;55.60
38237;DHT22;50101;49.438;11.098;2023-03-23T12:46:19;19.40;55.50
38237;DHT22;50101;49.438;11.098;2023-03-23T12:49:12;19.40;55.50
38237;DHT22;50101;49.438;11.098;2023-03-23T12:52:01;19.40;55.50
38237;DHT22;50101;49.438;11.098;2023-03-23T12:57:11;19.40;55.60
38237;DHT22;50101;49.438;11.098;2023-03-23T12:59:42;19.40;55.00
38237;DHT22;50101;49.438;11.098;2023-03-23T13:02:23;19.40;55.50
38237;DHT22;50101;49.438;11.098;2023-03-23T13:05:06;19.40;55.50
38237;DHT22;50101;49.438;11.098;2023-03-23T13:07:42;19.40;55.60
38237;DHT22;50101;49.438;11.098;2023-03-23T13:10:17;19.40;55.60
38237;DHT22;50101;49.438;11.098;2023-03-23T13:12:46;19.40;55.50
38237;DHT22;50101;49.438;11.098;2023-03-23T13:15:37;19.40;55.50
38237;DHT22;50101;49.438;11.098;2023-03-23T13:18:16;19.40;55.50
38237;DHT22;50101;49.438;11.098;2023-03-23T13:20:55;19.40;55.50
38237;DHT22;50101;49.438;11.098;2023-03-23T13:25:56;19.40;55.50
38237;DHT22;50101;49.438;11.098;2023-03-23T13:28:30;19.40;55.50
38237;DHT22;50101;49.438;11.098;2023-03-23T13:33:46;19.30;55.30
38237;DHT22;50101;49.438;11.098;2023-03-23T13:36:15;19.40;55.40
38237;DHT22;50101;49.438;11.098;2023-03-23T13:38:48;19.40;55.00
38237;DHT22;50101;49.438;11.098;2023-03-23T13:41:17;19.40;55.50
38237;DHT22;50101;49.438;11.098;2023-03-23T13:43:44;19.40;55.50
38237;DHT22;50101;49.438;11.098;2023-03-23T13:48:47;19.40;55.50
38237;DHT22;50101;49.438;11.098;2023-03-23T13:57:00;19.40;55.40
38237;DHT22;50101;49.438;11.098;2023-03-23T14:01:54;19.40;55.40
38237;DHT22;50101;49.438;11.098;2023-03-23T14:04:22;19.40;55.50
38237;DHT22;50101;49.438;11.098;2023-03-23T14:06:50;19.40;55.70
38237;DHT22;50101;49.438;11.098;2023-03-23T14:09:19;19.40;56.40
38237;DHT22;50101;49.438;11.098;2023-03-23T14:11:58;19.40;55.80
38237;DHT22;50101;49.438;11.098;2023-03-23T14:14:31;19.40;55.80
38237;DHT22;50101;49.438;11.098;2023-03-23T14:17:26;19.40;55.90
38237;DHT22;50101;49.438;11.098;2023-03-23T14:19:55;19.50;55.50
38237;DHT22;50101;49.438;11.098;2023-03-23T14:22:41;19.50;56.10
38237;DHT22;50101;49.438;11.098;2023-03-23T14:25:29;19.40;56.10
38237;DHT22;50101;49.438;11.098;2023-03-23T14:27:55;19.40;56.20
38237;DHT22;50101;49.438;11.098;2023-03-23T14:30:24;19.40;56.10
38237;DHT22;50101;49.438;11.098;2023-03-23T14:33:01;19.40;56.10
38237;DHT22;50101;49.438;11.098;2023-03-23T14:35:29;19.40;56.20
38237;DHT22;50101;49.438;11.098;2023-03-23T14:37:56;19.40;56.10
38237;DHT22;50101;49.438;11.098;2023-03-23T14:40:22;19.40;56.20
38237;DHT22;50101;49.438;11.098;2023-03-23T14:42:51;19.40;56.20
38237;DHT22;50101;49.438;11.098;2023-03-23T14:45:21;19.40;56.20
38237;DHT22;50101;49.438;11.098;2023-03-23T14:47:58;19.40;56.20
38237;DHT22;50101;49.438;11.098;2023-03-23T14:50:38;19.40;56.20
38237;DHT22;50101;49.438;11.098;2023-03-23T14:53:23;19.40;56.20
38237;DHT22;50101;49.438;11.098;2023-03-23T14:55:51;19.40;56.20
38237;DHT22;50101;49.438;11.098;2023-03-23T14:58:22;19.40;56.20
38237;DHT22;50101;49.438;11.098;2023-03-23T15:01:07;19.40;56.30
38237;DHT22;50101;49.438;11.098;2023-03-23T15:03:42;19.40;56.30
38237;DHT22;50101;49.438;11.098;2023-03-23T15:06:16;19.40;56.30
38237;DHT22;50101;49.438;11.098;2023-03-23T15:08:43;19.40;56.30
38237;DHT22;50101;49.438;11.098;2023-03-23T15:11:24;19.40;56.30
38237;DHT22;50101;49.438;11.098;2023-03-23T15:13:55;19.40;56.30
38237;DHT22;50101;49.438;11.098;2023-03-23T15:16:26;19.40;56.30
38237;DHT22;50101;49.438;11.098;2023-03-23T15:19:03;19.40;56.20
38237;DHT22;50101;49.438;11.098;2023-03-23T15:21:50;19.40;56.30
38237;DHT22;50101;49.438;11.098;2023-03-23T15:24:31;19.40;56.30
38237;DHT22;50101;49.438;11.098;2023-03-23T15:27:28;19.40;56.30
38237;DHT22;50101;49.438;11.098;2023-03-23T15:29:56;19.40;56.30
38237;DHT22;50101;49.438;11.098;2023-03-23T15:32:29;19.30;56.30
38237;DHT22;50101;49.438;11.098;2023-03-23T15:34:56;19.40;56.40
38237;DHT22;50101;49.438;11.098;2023-03-23T15:37:28;19.40;56.30
38237;DHT22;50101;49.438;11.098;2023-03-23T15:39:56;19.30;56.30
38237;DHT22;50101;49.438;11.098;2023-03-23T15:42:28;19.40;56.30
38237;DHT22;50101;49.438;11.098;2023-03-23T15:50:15;19.30;55.70
38237;DHT22;50101;49.438;11.098;2023-03-23T15:52:42;19.30;56.30
38237;DHT22;50101;49.438;11.098;2023-03-23T15:55:28;19.30;56.30
38237;DHT22;50101;49.438;11.098;2023-03-23T15:57:56;19.30;56.30
38237;DHT22;50101;49.438;11.098;2023-03-23T16:00:26;19.30;55.70
38237;DHT22;50101;49.438;11.098;2023-03-23T16:03:01;19.30;56.30
38237;DHT22;50101;49.438;11.098;2023-03-23T16:05:30;19.40;56.20
38237;DHT22;50101;49.438;11.098;2023-03-23T16:07:57;19.40;55.70
38237;DHT22;50101;49.438;11.098;2023-03-23T16:10:25;19.30;56.20
38237;DHT22;50101;49.438;11.098;2023-03-23T16:12:52;19.30;56.10
38237;DHT22;50101;49.438;11.098;2023-03-23T16:15:19;19.30;56.20
38237;DHT22;50101;49.438;11.098;2023-03-23T16:17:46;19.30;56.20
38237;DHT22;50101;49.438;11.098;2023-03-23T16:20:16;19.30;56.10
38237;DHT22;50101;49.438;11.098;2023-03-23T16:22:43;19.30;56.30
38237;DHT22;50101;49.438;11.098;2023-03-23T16:25:10;19.40;56.10
38237;DHT22;50101;49.438;11.098;2023-03-23T16:27:38;19.40;56.10
38237;DHT22;50101;49.438;11.098;2023-03-23T16:30:16;19.30;56.10
38237;DHT22;50101;49.438;11.098;2023-03-23T16:32:43;19.30;56.10
38237;DHT22;50101;49.438;11.098;2023-03-23T16:35:10;19.40;56.20
38237;DHT22;50101;49.438;11.098;2023-03-23T16:37:37;19.30;56.10
38237;DHT22;50101;49.438;11.098;2023-03-23T16:40:05;19.30;56.70
38237;DHT22;50101;49.438;11.098;2023-03-23T16:42:32;19.30;56.10
38237;DHT22;50101;49.438;11.098;2023-03-23T16:44:59;19.30;56.10
38237;DHT22;50101;49.438;11.098;2023-03-23T16:47:26;19.30;56.10
38237;DHT22;50101;49.438;11.098;2023-03-23T16:49:53;19.30;56.10
38237;DHT22;50101;49.438;11.098;2023-03-23T16:52:20;19.30;56.10
38237;DHT22;50101;49.438;11.098;2023-03-23T16:54:46;19.30;56.10
38237;DHT22;50101;49.438;11.098;2023-03-23T16:57:13;19.30;56.10
38237;DHT22;50101;49.438;11.098;2023-03-23T16:59:40;19.30;56.20
38237;DHT22;50101;49.438;11.098;2023-03-23T17:02:08;19.30;56.20
38237;DHT22;50101;49.438;11.098;2023-03-23T17:04:35;19.30;56.30
38237;DHT22;50101;49.438;11.098;2023-03-23T17:07:02;19.30;56.20
38237;DHT22;50101;49.438;11.098;2023-03-23T17:09:29;19.30;55.80
38237;DHT22;50101;49.438;11.098;2023-03-23T17:11:55;19.30;56.40